Time;durP1;ratioP1;P1;durP2;ratioP2;P2;SDS_P1;SDS_P2;PMS_P1;PMS_P2;Temp;Humidity;BMP_temperature;BMP_pressure;BME280_temperature;BME280_humidity;BME280_pressure;Samples;Min_cycle;Max_cycle;Signal;HPM_P1;HPM_P2
2022/10/10 00:00:13;;;;;;;4.85;3.15;;;11.10;99.90;;;;;;5017271;28;20068;-63
2022/10/10 00:02:40;;;;;;;8.10;3.67;;;11.10;99.90;;;;;;5034828;28;20492;-64
2022/10/10 00:05:07;;;;;;;7.35;2.58;;;11.20;99.90;;;;;;5034536;28;20061;-63
2022/10/10 00:07:33;;;;;;;8.18;2.30;;;11.20;99.90;;;;;;5035088;28;20046;-64
2022/10/10 00:10:00;;;;;;;5.20;2.20;;;11.30;99.90;;;;;;5017475;28;20100;-63
2022/10/10 00:12:27;;;;;;;10.07;2.40;;;11.40;99.90;;;;;;5034784;28;20120;-61
2022/10/10 00:14:53;;;;;;;6.43;2.28;;;11.50;99.90;;;;;;5017293;28;20041;-62
2022/10/10 00:17:20;;;;;;;6.80;2.13;;;11.50;99.90;;;;;;5034405;28;20045;-64
2022/10/10 00:19:47;;;;;;;6.43;2.10;;;11.60;99.90;;;;;;5034962;28;20043;-65
2022/10/10 00:22:14;;;;;;;4.53;2.05;;;11.60;99.90;;;;;;5034731;28;20049;-63
2022/10/10 00:24:40;;;;;;;5.30;2.00;;;11.60;99.90;;;;;;5033885;28;20124;-66
2022/10/10 00:27:07;;;;;;;5.07;2.08;;;11.70;99.90;;;;;;5034262;28;20084;-63
2022/10/10 00:29:34;;;;;;;7.70;2.28;;;11.70;99.90;;;;;;5016633;28;20041;-63
2022/10/10 00:32:01;;;;;;;6.55;2.17;;;11.70;99.90;;;;;;5034115;28;20377;-63
2022/10/10 00:34:28;;;;;;;4.40;1.88;;;11.80;99.90;;;;;;5016969;28;20501;-65
2022/10/10 00:36:54;;;;;;;7.88;2.13;;;11.80;99.90;;;;;;5034038;28;20042;-62
2022/10/10 00:39:21;;;;;;;6.22;2.28;;;11.80;99.90;;;;;;5034071;28;20124;-62
2022/10/10 00:41:48;;;;;;;4.55;2.20;;;11.80;99.90;;;;;;5016150;28;20512;-65
2022/10/10 00:44:14;;;;;;;4.68;2.40;;;11.80;99.90;;;;;;5033732;28;20065;-62
2022/10/10 00:46:41;;;;;;;5.38;2.17;;;11.80;99.90;;;;;;5034391;28;20377;-65
2022/10/10 00:49:08;;;;;;;6.30;2.30;;;11.80;99.90;;;;;;5034637;28;20029;-66
2022/10/10 00:51:34;;;;;;;5.85;2.05;;;11.80;99.90;;;;;;5034021;28;20120;-63
2022/10/10 00:54:01;;;;;;;5.65;2.08;;;11.90;99.90;;;;;;5034163;28;20539;-63
2022/10/10 00:56:28;;;;;;;7.57;2.13;;;11.90;99.90;;;;;;5034106;28;20037;-63
2022/10/10 00:58:55;;;;;;;7.18;2.17;;;11.90;99.90;;;;;;5033783;28;20506;-62
2022/10/10 01:01:21;;;;;;;6.57;1.73;;;11.90;99.90;;;;;;5033654;28;20148;-64
2022/10/10 01:03:48;;;;;;;6.45;2.20;;;11.90;99.90;;;;;;5034117;28;20065;-62
2022/10/10 01:06:15;;;;;;;4.10;1.80;;;12.00;99.90;;;;;;5033724;28;20041;-62
2022/10/10 01:08:41;;;;;;;7.13;2.72;;;12.00;99.90;;;;;;5033930;28;20038;-63
2022/10/10 01:11:08;;;;;;;4.75;2.20;;;12.00;99.90;;;;;;5034022;28;20075;-64
2022/10/10 01:13:35;;;;;;;5.97;2.25;;;12.00;99.90;;;;;;5033545;28;20064;-65
2022/10/10 01:16:02;;;;;;;4.78;2.15;;;12.00;99.90;;;;;;5033471;28;20073;-61
2022/10/10 01:18:28;;;;;;;5.20;2.17;;;12.00;99.90;;;;;;5033868;28;20045;-62
2022/10/10 01:20:55;;;;;;;4.55;2.22;;;12.00;99.90;;;;;;5033408;28;20132;-64
2022/10/10 01:23:22;;;;;;;6.10;2.20;;;11.90;99.90;;;;;;5033606;28;20041;-63
2022/10/10 01:25:48;;;;;;;4.80;2.22;;;11.90;99.90;;;;;;5033456;28;20045;-62
2022/10/10 01:28:15;;;;;;;5.78;2.58;;;11.90;99.90;;;;;;5033838;28;20125;-65
2022/10/10 01:30:42;;;;;;;6.90;2.35;;;11.90;99.90;;;;;;5033898;28;20046;-62
2022/10/10 01:33:08;;;;;;;4.93;2.53;;;11.90;99.90;;;;;;5033763;28;20065;-63
2022/10/10 01:35:35;;;;;;;7.88;2.60;;;11.90;99.90;;;;;;5033659;28;20103;-61
2022/10/10 01:38:02;;;;;;;4.85;2.20;;;11.90;99.90;;;;;;5033580;28;20069;-64
2022/10/10 01:40:28;;;;;;;4.18;2.50;;;11.90;99.90;;;;;;5034594;28;20480;-63
2022/10/10 01:42:55;;;;;;;8.27;3.00;;;11.90;99.90;;;;;;5019672;28;20176;-64
2022/10/10 01:45:22;;;;;;;10.45;4.50;;;11.90;99.90;;;;;;5019535;28;20178;-61
2022/10/10 01:47:49;;;;;;;9.90;5.53;;;11.90;99.90;;;;;;5037175;28;20045;-65
2022/10/10 01:50:15;;;;;;;12.32;6.32;;;11.80;99.90;;;;;;5037413;28;20062;-62
2022/10/10 01:52:42;;;;;;;11.65;5.72;;;11.90;99.90;;;;;;5037099;28;20481;-64
2022/10/10 01:55:09;;;;;;;10.68;5.35;;;11.80;99.90;;;;;;5037206;28;20049;-63
2022/10/10 01:57:35;;;;;;;13.65;5.72;;;11.90;99.90;;;;;;5037696;28;20373;-64
2022/10/10 02:00:02;;;;;;;9.60;4.88;;;11.90;99.90;;;;;;5037559;28;20140;-65
2022/10/10 02:02:29;;;;;;;10.60;5.22;;;11.80;99.90;;;;;;5037091;28;20049;-63
2022/10/10 02:04:56;;;;;;;10.90;5.22;;;11.80;99.90;;;;;;5037008;28;20045;-63
2022/10/10 02:07:23;;;;;;;10.52;4.78;;;11.80;99.90;;;;;;5037204;28;20037;-61
2022/10/10 02:09:49;;;;;;;9.15;4.15;;;11.80;99.90;;;;;;5036765;28;20037;-63
2022/10/10 02:12:16;;;;;;;7.00;3.63;;;11.80;99.90;;;;;;5036962;28;20065;-64
2022/10/10 02:14:43;;;;;;;9.50;4.47;;;11.80;99.90;;;;;;5037232;28;20076;-62
2022/10/10 02:17:09;;;;;;;8.98;4.18;;;11.80;99.90;;;;;;5036795;28;20469;-66
2022/10/10 02:19:36;;;;;;;8.32;4.35;;;11.80;99.90;;;;;;5036810;28;20144;-64
2022/10/10 02:22:03;;;;;;;10.57;4.68;;;11.80;99.90;;;;;;5036699;28;20156;-61
2022/10/10 02:24:29;;;;;;;9.75;4.82;;;11.80;99.90;;;;;;5036326;28;20041;-64
2022/10/10 02:26:56;;;;;;;9.23;3.45;;;11.80;99.90;;;;;;5037095;28;20468;-64
2022/10/10 02:29:23;;;;;;;10.02;3.72;;;11.90;99.90;;;;;;5037114;28;20084;-64
2022/10/10 02:31:50;;;;;;;7.88;3.33;;;11.90;99.90;;;;;;5036539;28;20122;-65
2022/10/10 02:34:16;;;;;;;8.25;3.67;;;11.90;99.90;;;;;;5018874;28;20107;-65
2022/10/10 02:36:43;;;;;;;8.13;3.15;;;11.90;99.90;;;;;;5036717;28;20112;-64
2022/10/10 02:39:10;;;;;;;8.85;3.30;;;11.90;99.90;;;;;;5018749;28;20155;-61
2022/10/10 02:41:36;;;;;;;7.25;2.97;;;11.90;99.90;;;;;;5019127;28;20072;-65
2022/10/10 02:44:03;;;;;;;6.38;2.88;;;12.00;99.90;;;;;;5036418;28;20042;-64
2022/10/10 02:46:30;;;;;;;5.40;2.63;;;12.00;99.90;;;;;;5036198;28;20065;-64
2022/10/10 02:48:56;;;;;;;6.15;3.08;;;12.10;99.90;;;;;;5018699;28;20128;-65
2022/10/10 02:51:23;;;;;;;5.47;2.90;;;12.10;99.90;;;;;;5036012;28;20124;-64
2022/10/10 02:53:55;;;;;;;5.90;2.83;;;12.10;99.90;;;;;;5035362;28;20038;-64
2022/10/10 02:56:22;;;;;;;5.82;2.83;;;12.20;99.90;;;;;;5018838;28;20459;-64
2022/10/10 02:58:49;;;;;;;8.00;3.05;;;12.20;99.90;;;;;;5036066;28;20051;-63
2022/10/10 03:01:16;;;;;;;6.45;3.03;;;12.30;99.90;;;;;;5035975;28;20049;-62
2022/10/10 03:03:42;;;;;;;5.63;2.67;;;12.30;99.90;;;;;;5035838;28;20045;-63
2022/10/10 03:06:09;;;;;;;6.80;2.50;;;12.40;99.90;;;;;;5018158;28;20060;-65
2022/10/10 03:08:36;;;;;;;8.30;3.25;;;12.40;99.90;;;;;;5036350;28;20041;-65
2022/10/10 03:11:02;;;;;;;6.82;2.80;;;12.50;99.90;;;;;;5036275;28;20041;-64
2022/10/10 03:13:29;;;;;;;7.65;3.00;;;12.50;99.90;;;;;;5035687;28;20068;-65
2022/10/10 03:15:56;;;;;;;6.03;2.95;;;12.60;99.90;;;;;;5036012;28;20045;-63
2022/10/10 03:18:22;;;;;;;7.90;2.55;;;12.60;99.90;;;;;;5035658;28;20065;-63
2022/10/10 03:20:49;;;;;;;5.72;2.80;;;12.60;99.90;;;;;;5035432;28;20046;-63
2022/10/10 03:23:16;;;;;;;10.10;2.42;;;12.70;99.90;;;;;;5035630;28;20034;-64
2022/10/10 03:25:43;;;;;;;6.35;2.40;;;12.70;99.90;;;;;;5035072;28;20056;-64
2022/10/10 03:28:09;;;;;;;8.20;2.65;;;12.70;99.90;;;;;;5035843;28;20045;-64
2022/10/10 03:30:36;;;;;;;4.30;2.17;;;12.80;99.90;;;;;;5018525;28;20042;-65
2022/10/10 03:33:03;;;;;;;5.45;2.33;;;12.80;99.90;;;;;;5035843;28;20065;-63
2022/10/10 03:35:30;;;;;;;5.90;2.47;;;12.90;99.90;;;;;;5035895;28;20041;-65
2022/10/10 03:37:56;;;;;;;6.28;2.60;;;12.90;99.90;;;;;;5035134;28;20049;-65
2022/10/10 03:40:23;;;;;;;7.13;2.53;;;13.00;99.90;;;;;;5035407;28;20041;-65
2022/10/10 03:42:50;;;;;;;6.32;2.22;;;13.00;99.90;;;;;;5017662;28;20069;-62
2022/10/10 03:45:17;;;;;;;7.22;2.20;;;13.00;99.90;;;;;;5035002;28;20042;-62
2022/10/10 03:47:44;;;;;;;5.53;1.92;;;13.00;99.90;;;;;;5035319;28;20069;-64
2022/10/10 03:50:10;;;;;;;7.53;2.38;;;13.00;99.90;;;;;;5035087;28;20112;-64
2022/10/10 03:52:37;;;;;;;7.70;2.40;;;13.10;99.90;;;;;;5035482;28;20065;-65
2022/10/10 03:55:04;;;;;;;6.47;2.30;;;13.10;99.90;;;;;;5034888;28;20041;-64
2022/10/10 03:57:30;;;;;;;9.43;2.25;;;13.10;99.90;;;;;;5035100;28;20128;-63
2022/10/10 03:59:57;;;;;;;5.10;2.15;;;13.10;99.90;;;;;;5035024;28;20124;-62
2022/10/10 04:02:24;;;;;;;8.57;2.17;;;13.10;99.90;;;;;;5034797;28;20042;-63
2022/10/10 04:04:51;;;;;;;5.60;1.73;;;13.10;99.90;;;;;;5017295;28;20128;-59
2022/10/10 04:07:17;;;;;;;6.78;2.33;;;13.20;99.90;;;;;;5034539;28;20068;-62
2022/10/10 04:09:44;;;;;;;6.72;1.98;;;13.20;99.90;;;;;;5034561;28;20068;-64
2022/10/10 04:12:11;;;;;;;6.47;1.88;;;13.20;99.90;;;;;;5034673;28;20128;-63
2022/10/10 04:14:38;;;;;;;5.90;1.77;;;13.20;99.90;;;;;;5034789;28;20060;-64
2022/10/10 04:17:04;;;;;;;4.00;1.88;;;13.20;99.90;;;;;;5034567;28;20404;-63
2022/10/10 04:19:31;;;;;;;6.32;1.92;;;13.20;99.90;;;;;;5035260;28;20095;-65
2022/10/10 04:21:58;;;;;;;5.90;1.55;;;13.20;99.90;;;;;;5034491;28;20152;-62
2022/10/10 04:24:24;;;;;;;7.38;1.90;;;13.30;99.90;;;;;;5034080;28;20582;-65
2022/10/10 04:26:51;;;;;;;7.00;1.60;;;13.30;99.90;;;;;;5034495;28;20452;-61
2022/10/10 04:29:18;;;;;;;7.25;1.73;;;13.40;99.90;;;;;;5016702;28;20081;-62
2022/10/10 04:31:44;;;;;;;6.38;1.73;;;13.40;99.90;;;;;;5034710;28;20041;-63
2022/10/10 04:34:11;;;;;;;5.30;1.90;;;13.40;99.90;;;;;;5034306;28;20073;-63
2022/10/10 04:36:38;;;;;;;7.70;1.80;;;13.40;99.90;;;;;;5034370;28;20103;-60
2022/10/10 04:39:04;;;;;;;6.32;1.77;;;13.50;99.90;;;;;;5033848;28;20046;-65
2022/10/10 04:41:31;;;;;;;7.15;1.90;;;13.50;99.90;;;;;;5034337;28;20037;-65
2022/10/10 04:43:58;;;;;;;6.88;2.10;;;13.50;99.90;;;;;;5034232;28;20077;-65
2022/10/10 04:46:24;;;;;;;4.47;1.80;;;13.50;99.90;;;;;;5034101;28;20095;-61
2022/10/10 04:48:51;;;;;;;5.78;1.75;;;13.60;99.90;;;;;;5034421;28;20402;-64
2022/10/10 04:51:18;;;;;;;4.07;1.63;;;13.60;99.90;;;;;;5034465;28;20050;-62
2022/10/10 04:53:45;;;;;;;5.60;1.80;;;13.60;99.90;;;;;;5033828;28;20083;-63
2022/10/10 04:56:16;;;;;;;4.90;1.90;;;13.60;99.90;;;;;;5034306;28;20152;-62
2022/10/10 04:58:42;;;;;;;4.60;1.85;;;13.60;99.90;;;;;;5033853;28;20124;-64
2022/10/10 05:01:09;;;;;;;5.15;1.90;;;13.60;99.90;;;;;;5033848;28;20069;-65
2022/10/10 05:03:36;;;;;;;4.75;1.85;;;13.60;99.90;;;;;;5033649;28;20038;-64
2022/10/10 05:06:02;;;;;;;7.88;2.08;;;13.60;99.90;;;;;;5033723;28;20128;-62
2022/10/10 05:08:29;;;;;;;7.47;2.10;;;13.60;99.90;;;;;;5033659;28;20033;-61
2022/10/10 05:10:56;;;;;;;5.38;1.65;;;13.60;99.90;;;;;;5033460;28;20539;-63
2022/10/10 05:13:23;;;;;;;5.18;1.92;;;13.60;99.90;;;;;;5033599;28;20076;-61
2022/10/10 05:15:50;;;;;;;6.80;2.00;;;13.60;99.90;;;;;;5033417;28;20539;-63
2022/10/10 05:18:16;;;;;;;6.82;2.08;;;13.70;99.90;;;;;;5033716;28;20080;-64
2022/10/10 05:20:46;;;;;;;7.10;2.15;;;13.70;99.90;;;;;;5033825;28;20095;-65
2022/10/10 05:23:13;;;;;;;6.50;2.28;;;13.70;99.90;;;;;;5033454;28;20069;-61
2022/10/10 05:25:40;;;;;;;8.32;2.28;;;13.60;99.90;;;;;;5033163;28;20141;-65
2022/10/10 05:28:06;;;;;;;7.72;2.03;;;13.70;99.90;;;;;;5033638;28;20052;-61
2022/10/10 05:30:33;;;;;;;6.30;2.22;;;13.70;99.90;;;;;;5033271;28;20041;-62
2022/10/10 05:33:00;;;;;;;8.40;2.28;;;13.70;99.90;;;;;;5033495;28;20547;-64
2022/10/10 05:35:26;;;;;;;7.32;2.28;;;13.70;99.90;;;;;;5033254;28;20140;-66
2022/10/10 05:37:53;;;;;;;5.97;2.38;;;13.70;99.90;;;;;;5033575;28;20045;-63
2022/10/10 05:40:20;;;;;;;7.18;2.50;;;13.70;99.90;;;;;;5033211;28;20396;-63
2022/10/10 05:42:47;;;;;;;5.00;2.20;;;13.70;99.90;;;;;;5033137;28;20124;-63
2022/10/10 05:45:14;;;;;;;6.13;2.45;;;13.70;99.90;;;;;;5032967;28;20051;-62
2022/10/10 05:47:40;;;;;;;9.25;3.92;;;13.70;99.90;;;;;;5033404;28;20431;-65
2022/10/10 05:50:07;;;;;;;10.98;3.28;;;13.70;99.90;;;;;;5033281;28;20057;-63
2022/10/10 05:52:35;;;;;;;8.77;3.25;;;13.70;99.90;;;;;;5033422;28;20428;-65
2022/10/10 05:55:02;;;;;;;9.23;3.58;;;13.70;99.90;;;;;;5033535;28;20128;-63
2022/10/10 05:57:28;;;;;;;9.05;3.35;;;13.70;99.90;;;;;;5033222;28;20091;-64
2022/10/10 05:59:55;;;;;;;8.60;3.28;;;13.70;99.90;;;;;;5033532;28;20033;-60
2022/10/10 06:02:22;;;;;;;6.93;3.05;;;13.70;99.90;;;;;;5033215;28;20112;-64
2022/10/10 06:04:48;;;;;;;7.50;2.78;;;13.70;99.90;;;;;;5033010;28;20046;-61
2022/10/10 06:07:15;;;;;;;9.48;3.67;;;13.70;99.90;;;;;;5033062;28;20065;-63
2022/10/10 06:09:42;;;;;;;7.72;2.80;;;13.80;99.90;;;;;;5033132;28;20076;-63
2022/10/10 06:12:08;;;;;;;9.48;2.85;;;13.80;99.90;;;;;;5037482;28;20116;-66
2022/10/10 06:14:35;;;;;;;7.78;3.33;;;13.80;99.90;;;;;;5029913;28;20038;-64
2022/10/10 06:17:02;;;;;;;7.35;3.10;;;13.70;99.90;;;;;;5031868;28;20049;-62
2022/10/10 06:19:28;;;;;;;9.38;3.58;;;13.70;99.90;;;;;;5014080;28;20049;-65
2022/10/10 06:21:55;;;;;;;8.55;3.50;;;13.60;99.90;;;;;;5031841;28;20041;-62
2022/10/10 06:24:22;;;;;;;10.80;3.40;;;13.60;99.90;;;;;;5031801;28;20116;-62
2022/10/10 06:26:49;;;;;;;11.75;4.22;;;13.50;99.90;;;;;;5032629;28;20103;-62
2022/10/10 06:29:15;;;;;;;10.57;3.92;;;13.50;99.90;;;;;;5035781;28;20057;-63
2022/10/10 06:31:42;;;;;;;9.70;4.63;;;13.40;99.90;;;;;;5035716;28;20042;-63
2022/10/10 06:34:09;;;;;;;14.07;4.40;;;13.30;99.90;;;;;;5035874;28;20088;-61
2022/10/10 06:36:35;;;;;;;14.73;4.53;;;13.20;99.90;;;;;;5035924;28;20124;-62
2022/10/10 06:39:02;;;;;;;12.48;4.72;;;13.10;99.90;;;;;;5035728;28;20552;-63
2022/10/10 06:41:29;;;;;;;15.98;4.57;;;13.00;99.90;;;;;;5035332;28;20443;-62
2022/10/10 06:43:56;;;;;;;18.10;4.70;;;13.00;99.90;;;;;;5035455;28;20068;-62
2022/10/10 06:46:22;;;;;;;12.85;4.90;;;12.90;99.90;;;;;;5035508;28;20112;-63
2022/10/10 06:48:52;;;;;;;13.90;4.95;;;12.90;99.90;;;;;;5034998;28;20091;-62
2022/10/10 06:51:19;;;;;;;10.52;4.45;;;12.90;99.90;;;;;;5035332;28;20128;-62
2022/10/10 06:53:46;;;;;;;15.18;5.03;;;12.80;99.90;;;;;;5035536;28;20034;-62
2022/10/10 06:56:16;;;;;;;12.13;5.40;;;12.80;99.90;;;;;;5035464;28;20136;-62
2022/10/10 06:58:43;;;;;;;16.17;5.57;;;12.80;99.90;;;;;;5035194;28;20057;-62
2022/10/10 07:01:10;;;;;;;7.68;4.55;;;12.80;99.90;;;;;;5035182;28;20124;-61
2022/10/10 07:03:36;;;;;;;13.93;4.53;;;12.70;99.90;;;;;;5034759;28;20037;-61
2022/10/10 07:06:03;;;;;;;8.95;5.05;;;12.70;99.90;;;;;;5035438;28;20136;-61
2022/10/10 07:08:30;;;;;;;8.73;5.55;;;12.70;99.90;;;;;;5035118;28;20041;-63
2022/10/10 07:10:57;;;;;;;7.30;4.43;;;12.60;99.90;;;;;;5035514;28;20037;-64
2022/10/10 07:13:23;;;;;;;7.85;4.68;;;12.50;99.90;;;;;;5033471;28;20042;-63
2022/10/10 07:15:50;;;;;;;6.40;3.47;;;12.50;99.90;;;;;;5034993;28;20132;-64
2022/10/10 07:18:17;;;;;;;5.85;2.30;;;12.30;99.90;;;;;;5034691;28;20120;-63
2022/10/10 07:20:44;;;;;;;6.72;2.10;;;12.10;99.90;;;;;;5034675;28;20119;-63
2022/10/10 07:23:10;;;;;;;6.85;2.10;;;11.90;99.90;;;;;;5034470;28;20045;-62
2022/10/10 07:25:38;;;;;;;6.28;1.98;;;11.80;99.90;;;;;;5016766;28;20449;-64
2022/10/10 07:28:04;;;;;;;9.05;2.10;;;11.70;99.90;;;;;;5034518;28;20072;-63
2022/10/10 07:30:31;;;;;;;7.38;1.85;;;11.50;99.90;;;;;;5035005;28;20052;-65
2022/10/10 07:32:58;;;;;;;8.75;1.80;;;11.40;99.90;;;;;;5034320;28;20037;-62
2022/10/10 07:35:25;;;;;;;7.15;2.00;;;11.20;99.90;;;;;;5016909;28;20535;-62
2022/10/10 07:37:51;;;;;;;10.95;2.30;;;11.20;99.90;;;;;;5033986;28;20034;-64
2022/10/10 07:40:18;;;;;;;7.68;1.98;;;11.10;99.90;;;;;;5034733;28;20052;-62
2022/10/10 07:42:45;;;;;;;12.68;2.42;;;11.10;99.90;;;;;;5034577;28;20043;-63
2022/10/10 07:45:12;;;;;;;7.95;2.25;;;11.10;99.90;;;;;;5034447;28;20069;-62
2022/10/10 07:47:38;;;;;;;9.02;2.00;;;11.10;99.90;;;;;;5034580;28;20116;-62
2022/10/10 07:50:06;;;;;;;9.82;2.10;;;11.10;99.90;;;;;;5034537;28;20076;-68
2022/10/10 07:52:33;;;;;;;8.93;2.05;;;11.10;99.90;;;;;;5034178;28;20038;-62
2022/10/10 07:55:00;;;;;;;11.00;2.20;;;11.10;99.90;;;;;;5034179;28;20042;-63
2022/10/10 07:57:27;;;;;;;11.20;2.42;;;11.00;99.90;;;;;;5034519;28;20041;-63
2022/10/10 07:59:54;;;;;;;8.20;2.10;;;10.90;99.90;;;;;;5034401;28;20041;-62
2022/10/10 08:02:21;;;;;;;6.25;1.60;;;10.80;99.90;;;;;;5034216;28;20068;-61
2022/10/10 08:04:47;;;;;;;9.02;1.73;;;10.80;99.90;;;;;;5034225;28;20116;-66
2022/10/10 08:07:14;;;;;;;12.02;2.08;;;10.70;99.90;;;;;;5034203;28;20099;-62
2022/10/10 08:09:41;;;;;;;8.68;1.92;;;10.60;99.90;;;;;;5034144;28;20041;-64
2022/10/10 08:12:07;;;;;;;7.07;1.95;;;10.50;99.90;;;;;;5034172;28;20540;-60
2022/10/10 08:14:34;;;;;;;9.15;2.08;;;10.40;99.90;;;;;;5034080;28;20128;-62
2022/10/10 08:17:01;;;;;;;8.10;1.67;;;10.40;99.90;;;;;;5034131;28;20451;-63
2022/10/10 08:19:28;;;;;;;10.02;2.20;;;10.40;99.90;;;;;;5033947;28;20089;-66
2022/10/10 08:21:55;;;;;;;8.13;1.83;;;10.40;99.90;;;;;;5033948;28;20099;-62
2022/10/10 08:24:22;;;;;;;9.70;1.80;;;10.40;99.90;;;;;;5033749;28;20045;-63
2022/10/10 08:26:50;;;;;;;9.18;1.83;;;10.50;99.90;;;;;;5033996;28;20110;-62
2022/10/10 08:29:16;;;;;;;8.93;1.85;;;10.50;99.90;;;;;;5033951;28;20042;-63
2022/10/10 08:31:43;;;;;;;11.13;1.95;;;10.50;99.90;;;;;;5033731;28;20037;-61
2022/10/10 08:34:10;;;;;;;11.30;2.08;;;10.60;99.90;;;;;;5033352;28;20077;-62
2022/10/10 08:36:37;;;;;;;8.10;1.77;;;10.60;99.90;;;;;;5034179;28;20041;-65
2022/10/10 08:39:03;;;;;;;9.57;2.13;;;10.60;99.90;;;;;;5033791;28;20103;-65
2022/10/10 08:41:30;;;;;;;11.10;2.78;;;10.60;99.90;;;;;;5033471;28;20084;-61
2022/10/10 08:43:57;;;;;;;9.48;1.70;;;10.60;99.90;;;;;;5033670;28;20041;-63
2022/10/10 08:46:24;;;;;;;10.40;2.42;;;10.60;99.90;;;;;;5033898;28;20093;-65
2022/10/10 08:48:50;;;;;;;9.90;2.20;;;10.60;99.90;;;;;;5032690;28;20038;-63
2022/10/10 08:51:17;;;;;;;9.75;2.00;;;10.70;99.90;;;;;;5033762;28;20037;-61
2022/10/10 08:53:44;;;;;;;10.20;1.67;;;10.70;99.90;;;;;;5031984;28;20050;-60
2022/10/10 08:56:10;;;;;;;10.10;2.10;;;10.80;99.90;;;;;;5033663;28;20503;-63
2022/10/10 08:58:37;;;;;;;10.07;1.85;;;10.80;99.90;;;;;;5033416;28;20171;-64
2022/10/10 09:01:04;;;;;;;13.73;2.33;;;10.80;99.90;;;;;;5033374;28;20091;-61
2022/10/10 09:03:31;;;;;;;7.80;2.28;;;10.90;99.90;;;;;;5033035;28;20073;-66
2022/10/10 09:05:57;;;;;;;9.43;1.77;;;11.00;99.90;;;;;;5033294;28;20503;-64
2022/10/10 09:08:24;;;;;;;10.32;2.65;;;11.10;99.90;;;;;;5033123;28;20069;-65
2022/10/10 09:10:53;;;;;;;10.88;1.67;;;11.10;99.90;;;;;;5033031;28;20041;-62
2022/10/10 09:13:20;;;;;;;7.90;1.63;;;11.10;99.90;;;;;;5033043;28;20041;-62
2022/10/10 09:15:47;;;;;;;9.35;2.00;;;11.20;99.90;;;;;;5033331;28;20575;-61
2022/10/10 09:18:13;;;;;;;11.93;1.95;;;11.20;99.90;;;;;;5033032;28;20128;-62
2022/10/10 09:20:40;;;;;;;7.68;1.98;;;11.20;99.90;;;;;;5032799;28;20132;-63
2022/10/10 09:23:07;;;;;;;11.85;2.30;;;11.30;99.90;;;;;;5032578;28;20485;-60
2022/10/10 09:25:33;;;;;;;9.00;2.08;;;11.40;99.90;;;;;;5032379;28;20064;-60
2022/10/10 09:28:00;;;;;;;11.13;1.90;;;11.40;99.90;;;;;;5031582;28;20044;-63
2022/10/10 09:30:27;;;;;;;10.82;2.00;;;11.40;99.90;;;;;;5032642;28;20080;-61
2022/10/10 09:32:54;;;;;;;10.63;2.20;;;11.40;99.90;;;;;;5032383;28;20045;-64
2022/10/10 09:35:21;;;;;;;11.80;2.38;;;11.40;99.90;;;;;;5032631;28;20037;-63
2022/10/10 09:37:48;;;;;;;13.48;2.63;;;11.50;99.90;;;;;;5031962;28;20076;-61
2022/10/10 09:40:15;;;;;;;11.05;2.58;;;11.50;99.90;;;;;;5032707;28;20056;-63
2022/10/10 09:42:41;;;;;;;15.65;2.83;;;11.50;99.90;;;;;;5031947;28;20120;-62
2022/10/10 09:45:08;;;;;;;11.80;2.20;;;11.60;99.90;;;;;;5032624;28;20627;-63
2022/10/10 09:47:35;;;;;;;11.73;2.03;;;11.60;99.90;;;;;;5032752;28;20041;-67
2022/10/10 09:50:01;;;;;;;11.90;2.35;;;11.70;99.90;;;;;;5032546;28;20065;-64
2022/10/10 09:52:29;;;;;;;10.30;2.38;;;11.70;99.90;;;;;;5032242;28;20041;-63
2022/10/10 09:54:56;;;;;;;13.93;2.33;;;11.80;99.90;;;;;;5032800;28;20052;-60
2022/10/10 09:57:23;;;;;;;10.20;2.20;;;11.80;99.90;;;;;;5032505;28;20048;-64
2022/10/10 09:59:49;;;;;;;10.38;2.28;;;11.90;99.90;;;;;;5032484;28;20128;-63
2022/10/10 10:02:16;;;;;;;14.63;2.67;;;11.90;99.90;;;;;;5033658;28;20045;-61
2022/10/10 10:04:43;;;;;;;12.02;2.72;;;12.00;99.90;;;;;;5036643;28;20077;-64
2022/10/10 10:07:10;;;;;;;11.77;2.25;;;12.10;99.90;;;;;;5036394;28;20133;-62
2022/10/10 10:09:37;;;;;;;13.25;2.47;;;12.10;99.90;;;;;;5036432;28;20038;-67
2022/10/10 10:12:04;;;;;;;19.17;3.63;;;12.20;99.90;;;;;;5034716;28;20049;-60
2022/10/10 10:14:31;;;;;;;11.32;2.65;;;12.10;99.90;;;;;;5036305;28;20388;-62
2022/10/10 10:16:57;;;;;;;11.60;2.20;;;12.10;99.90;;;;;;5036379;28;20503;-63
2022/10/10 10:19:24;;;;;;;11.52;2.50;;;12.10;99.90;;;;;;5036318;28;20511;-63
2022/10/10 10:21:51;;;;;;;9.45;2.25;;;12.10;99.90;;;;;;5036267;28;20447;-61
2022/10/10 10:24:18;;;;;;;12.57;2.55;;;12.10;99.90;;;;;;5036084;28;20064;-62
2022/10/10 10:26:44;;;;;;;13.38;2.30;;;12.00;99.90;;;;;;5036190;28;20430;-63
2022/10/10 10:29:11;;;;;;;11.63;2.20;;;12.00;99.90;;;;;;5036221;28;20481;-63
2022/10/10 10:31:38;;;;;;;11.65;2.70;;;12.10;99.90;;;;;;5036174;28;20121;-61
2022/10/10 10:34:10;;;;;;;13.23;2.55;;;12.10;99.90;;;;;;5051403;28;20132;-64
2022/10/10 10:36:36;;;;;;;12.70;2.75;;;12.20;99.90;;;;;;5036288;28;20103;-63
2022/10/10 10:39:03;;;;;;;12.00;2.72;;;12.10;99.90;;;;;;5035799;28;20409;-62
2022/10/10 10:41:30;;;;;;;14.50;2.72;;;12.20;99.90;;;;;;5035757;28;20373;-61
2022/10/10 10:43:56;;;;;;;12.75;3.03;;;12.20;99.90;;;;;;5035743;28;20057;-60
2022/10/10 10:46:23;;;;;;;10.95;2.15;;;12.20;99.90;;;;;;5035847;28;20041;-61
2022/10/10 10:48:50;;;;;;;19.42;2.75;;;12.30;99.90;;;;;;5035783;28;20049;-63
2022/10/10 10:51:17;;;;;;;18.63;3.08;;;12.30;99.90;;;;;;5035861;28;20041;-62
2022/10/10 10:53:43;;;;;;;18.77;2.50;;;12.40;99.90;;;;;;5035584;28;20061;-62
2022/10/10 10:56:10;;;;;;;11.93;2.67;;;12.40;99.90;;;;;;5035731;28;20048;-62
2022/10/10 10:58:37;;;;;;;10.02;2.25;;;12.50;99.90;;;;;;5035598;28;20424;-61
2022/10/10 11:01:23;;;;;;;12.52;2.00;;;12.60;99.90;;;;;;5034386;28;20049;-63
2022/10/10 11:04:10;;;;;;;12.68;2.45;;;12.60;99.90;;;;;;5035429;28;20065;-62
2022/10/10 11:06:57;;;;;;;11.48;2.30;;;12.60;99.30;;;;;;5035576;28;20491;-64
2022/10/10 11:09:44;;;;;;;17.35;2.72;;;12.70;98.90;;;;;;5035307;28;20034;-63
2022/10/10 11:12:16;;;;;;;13.48;2.83;;;12.70;99.30;;;;;;5033897;28;20060;-64
2022/10/10 11:14:42;;;;;;;10.07;2.33;;;12.70;99.20;;;;;;5034291;28;20041;-61
2022/10/10 11:17:09;;;;;;;10.20;1.77;;;12.80;99.40;;;;;;5035319;28;20523;-62
2022/10/10 11:19:36;;;;;;;9.13;2.38;;;12.80;99.60;;;;;;5035257;28;20159;-61
2022/10/10 11:22:02;;;;;;;8.52;2.20;;;12.80;99.30;;;;;;5035080;28;20493;-61
2022/10/10 11:24:29;;;;;;;11.80;2.45;;;12.90;98.00;;;;;;5035009;28;20103;-61
2022/10/10 11:26:56;;;;;;;10.05;2.22;;;12.90;98.20;;;;;;5035025;28;20128;-60
2022/10/10 11:29:22;;;;;;;10.23;2.42;;;13.00;97.90;;;;;;5035345;28;20121;-63
2022/10/10 11:31:49;;;;;;;12.05;2.15;;;13.00;98.10;;;;;;5034637;28;20119;-62
2022/10/10 11:34:16;;;;;;;10.25;2.00;;;13.10;98.60;;;;;;5034814;28;20474;-61
2022/10/10 11:36:42;;;;;;;14.75;2.13;;;13.10;96.80;;;;;;5034968;28;20429;-61
2022/10/10 11:39:09;;;;;;;13.23;2.28;;;13.20;97.80;;;;;;5034915;28;20045;-62
2022/10/10 11:41:41;;;;;;;13.05;4.53;;;13.20;96.00;;;;;;5034300;28;20045;-61
2022/10/10 11:44:08;;;;;;;10.02;2.30;;;13.30;96.20;;;;;;5034614;28;20113;-61
2022/10/10 11:46:34;;;;;;;11.35;1.83;;;13.20;95.90;;;;;;5034652;28;20041;-61
2022/10/10 11:49:01;;;;;;;9.10;1.92;;;13.30;94.70;;;;;;5035038;28;20452;-59
2022/10/10 11:51:28;;;;;;;10.00;2.13;;;13.30;93.80;;;;;;5034820;28;20133;-59
2022/10/10 11:53:54;;;;;;;9.68;2.08;;;13.30;94.00;;;;;;5034530;28;20037;-62
2022/10/10 11:56:21;;;;;;;10.40;2.22;;;13.40;93.50;;;;;;5034538;28;20045;-60
2022/10/10 11:58:49;;;;;;;8.95;1.90;;;13.40;94.60;;;;;;5034524;28;20048;-61
2022/10/10 12:01:16;;;;;;;7.75;1.90;;;13.40;94.80;;;;;;5034397;28;20046;-60
2022/10/10 12:03:43;;;;;;;7.95;1.73;;;13.50;93.40;;;;;;5034081;28;20045;-59
2022/10/10 12:06:09;;;;;;;5.57;1.77;;;13.50;93.20;;;;;;5034303;28;20524;-62
2022/10/10 12:08:36;;;;;;;8.80;1.48;;;13.60;92.90;;;;;;5034159;28;20119;-62
2022/10/10 12:11:03;;;;;;;13.38;2.10;;;13.70;92.30;;;;;;5034219;28;20069;-65
2022/10/10 12:13:29;;;;;;;8.23;1.70;;;13.70;93.20;;;;;;5033900;28;20476;-62
2022/10/10 12:15:56;;;;;;;7.70;1.60;;;13.70;92.60;;;;;;5033060;28;20041;-61
2022/10/10 12:18:23;;;;;;;8.50;2.13;;;13.70;92.70;;;;;;5034005;28;20128;-64
2022/10/10 12:20:50;;;;;;;8.32;1.73;;;13.80;92.20;;;;;;5031760;28;20124;-61
2022/10/10 12:23:16;;;;;;;10.50;2.08;;;13.90;92.60;;;;;;5033787;28;20048;-60
2022/10/10 12:25:45;;;;;;;7.57;1.73;;;13.90;92.10;;;;;;5033533;28;20057;-60
2022/10/10 12:28:11;;;;;;;8.30;1.70;;;14.00;91.90;;;;;;5033045;28;20037;-62
2022/10/10 12:30:38;;;;;;;7.25;1.80;;;14.00;91.70;;;;;;5034058;28;20033;-63
2022/10/10 12:33:05;;;;;;;6.95;1.80;;;14.00;92.40;;;;;;5033551;28;20092;-61
2022/10/10 12:35:32;;;;;;;6.90;1.70;;;14.00;92.50;;;;;;5033747;28;20068;-61
2022/10/10 12:37:58;;;;;;;9.27;2.10;;;14.10;93.00;;;;;;5033582;28;20453;-61
2022/10/10 12:40:25;;;;;;;8.32;1.88;;;14.10;92.10;;;;;;5033513;28;20095;-62